createdAt,value
2023-05-03T00:03:07.050Z,1.83
2023-05-03T00:08:09.380Z,1.80
2023-05-03T00:13:11.749Z,1.83
2023-05-03T00:18:14.630Z,1.70
2023-05-03T00:23:17.210Z,1.87
2023-05-03T00:28:19.467Z,1.67
2023-05-03T00:33:21.815Z,2.00
2023-05-03T00:38:24.124Z,1.90
2023-05-03T00:43:26.615Z,2.00
2023-05-03T00:48:29.377Z,1.97
2023-05-03T00:53:31.722Z,2.07
2023-05-03T00:58:36.489Z,1.87
2023-05-03T01:03:41.607Z,1.93
2023-05-03T01:08:53.927Z,1.90
2023-05-03T01:14:10.430Z,1.97
2023-05-03T01:19:40.597Z,1.80
2023-05-03T01:24:47.384Z,2.27
2023-05-03T01:29:49.668Z,2.00
2023-05-03T01:35:08.871Z,2.10
2023-05-03T01:40:16.799Z,1.90
2023-05-03T01:45:19.553Z,1.80
2023-05-03T01:50:21.863Z,1.90
2023-05-03T01:55:24.172Z,1.63
2023-05-03T02:00:26.713Z,1.93
2023-05-03T02:05:28.990Z,18.60
2023-05-03T02:10:31.268Z,3.00
2023-05-03T02:15:33.666Z,2.23
2023-05-03T02:20:37.920Z,1.80
2023-05-03T02:25:40.956Z,2.03
2023-05-03T02:30:43.855Z,2.30
2023-05-03T02:35:46.200Z,5.43
2023-05-03T02:40:48.443Z,2.40
2023-05-03T02:45:50.985Z,2.53
2023-05-03T02:50:54.981Z,2.27
2023-05-03T02:55:57.616Z,2.43
2023-05-03T03:01:00.428Z,2.40
2023-05-03T03:06:05.941Z,2.50
2023-05-03T03:11:10.720Z,3.00
2023-05-03T03:16:13.557Z,2.97
2023-05-03T03:21:16.083Z,2.83
2023-05-03T03:26:19.059Z,3.03
2023-05-03T03:31:23.629Z,3.83
2023-05-03T03:36:27.972Z,4.30
2023-05-03T03:41:30.754Z,4.37
2023-05-03T03:46:33.173Z,3.53
2023-05-03T03:51:36.640Z,2.90
2023-05-03T03:56:39.093Z,3.27
2023-05-03T04:01:42.049Z,2.77
2023-05-03T04:06:46.404Z,2.90
2023-05-03T04:11:51.172Z,3.33
2023-05-03T04:16:54.561Z,3.50
2023-05-03T04:21:57.073Z,3.07
2023-05-03T04:27:04.332Z,2.93
2023-05-03T04:32:08.547Z,4.47
2023-05-03T04:37:13.616Z,3.43
2023-05-03T04:42:16.076Z,4.10
2023-05-03T04:47:19.678Z,2.90
2023-05-03T04:52:22.206Z,2.70
2023-05-03T04:57:25.066Z,3.50
2023-05-03T05:02:29.011Z,3.17
2023-05-03T05:07:31.459Z,3.60
2023-05-03T05:12:33.947Z,3.20
2023-05-03T05:17:39.442Z,3.20
2023-05-03T05:22:42.997Z,3.30
2023-05-03T05:27:45.426Z,3.40
2023-05-03T05:32:48.720Z,3.20
2023-05-03T05:37:51.064Z,3.00
2023-05-03T05:42:53.652Z,2.90
2023-05-03T05:47:58.173Z,2.70
2023-05-03T05:53:01.907Z,2.80
2023-05-03T05:58:09.840Z,2.40
2023-05-03T06:03:18.599Z,2.60
2023-05-03T06:08:23.598Z,2.10
2023-05-03T06:13:26.387Z,2.20
2023-05-03T06:18:29.384Z,2.73
2023-05-03T06:23:33.485Z,2.60
2023-05-03T06:28:37.144Z,2.23
2023-05-03T06:33:40.401Z,1.93
2023-05-03T06:38:43.925Z,2.03
2023-05-03T06:43:46.393Z,2.60
2023-05-03T06:48:48.812Z,3.47
2023-05-03T06:53:51.296Z,2.83
2023-05-03T06:58:54.323Z,2.70
2023-05-03T07:03:57.203Z,2.20
2023-05-03T07:09:00.725Z,2.13
2023-05-03T07:14:03.013Z,2.00
2023-05-03T07:19:05.266Z,2.30
2023-05-03T07:24:08.548Z,2.00
2023-05-03T07:29:10.800Z,3.00
2023-05-03T07:34:13.176Z,2.17
2023-05-03T07:39:15.829Z,1.90
2023-05-03T07:44:18.153Z,1.40
2023-05-03T07:49:20.524Z,1.70
2023-05-03T07:54:22.812Z,1.30
2023-05-03T07:59:25.121Z,2.03
2023-05-03T08:04:27.864Z,1.63
2023-05-03T08:09:30.703Z,1.47
2023-05-03T08:14:33.915Z,1.80
2023-05-03T08:19:36.240Z,1.43
2023-05-03T08:24:39.146Z,1.40
2023-05-03T08:29:41.451Z,1.40
2023-05-03T08:34:44.295Z,1.40
2023-05-03T08:39:47.571Z,1.50
2023-05-03T08:44:49.918Z,1.40
2023-05-03T08:49:53.766Z,1.60
2023-05-03T08:54:56.082Z,1.43
2023-05-03T09:00:01.646Z,2.10
2023-05-03T09:05:06.648Z,1.73
2023-05-03T09:10:26.718Z,1.70
2023-05-03T09:15:32.483Z,1.83
2023-05-03T09:20:36.989Z,1.67
2023-05-03T09:25:51.560Z,1.70
2023-05-03T09:31:07.509Z,1.57
2023-05-03T09:36:11.014Z,1.67
2023-05-03T09:41:13.485Z,1.50
2023-05-03T09:46:15.885Z,1.30
2023-05-03T09:51:18.685Z,1.80
2023-05-03T09:56:26.389Z,1.53
2023-05-03T10:01:28.876Z,1.60
2023-05-03T10:06:33.949Z,1.50
2023-05-03T10:11:36.793Z,1.37
2023-05-03T10:16:43.388Z,1.57
2023-05-03T10:21:55.535Z,1.57
2023-05-03T10:26:58.042Z,1.40
2023-05-03T10:32:01.988Z,1.70
2023-05-03T10:37:11.101Z,1.67
2023-05-03T10:42:13.664Z,1.50
2023-05-03T10:47:24.483Z,1.50
2023-05-03T10:52:36.232Z,1.50
2023-05-03T10:57:40.620Z,1.33
2023-05-03T11:03:04.653Z,1.30
2023-05-03T11:08:17.676Z,1.30
2023-05-03T11:13:20.139Z,2.07
2023-05-03T11:18:29.152Z,2.03
2023-05-03T11:23:31.562Z,1.17
2023-05-03T11:28:34.027Z,1.30
2023-05-03T11:33:41.087Z,1.67
2023-05-03T11:38:43.655Z,2.03
2023-05-03T11:43:49.434Z,1.40
2023-05-03T11:48:56.340Z,1.53
2023-05-03T11:54:12.977Z,1.30
2023-05-03T11:59:40.503Z,1.57
2023-05-03T12:04:45.780Z,1.17
2023-05-03T12:10:00.848Z,1.20
2023-05-03T12:15:15.526Z,1.20
2023-05-03T12:25:28.055Z,2.40
2023-05-03T12:30:34.381Z,1.20
2023-05-03T12:35:39.994Z,2.20
2023-05-03T12:40:43.140Z,1.30
2023-05-03T12:45:52.275Z,1.60
2023-05-03T12:51:17.721Z,1.50
2023-05-03T12:56:24.583Z,1.20
2023-05-03T13:06:42.407Z,1.10
2023-05-03T13:11:48.289Z,1.20
2023-05-03T13:16:51.525Z,1.50
2023-05-03T13:21:54.294Z,1.50
2023-05-03T13:26:56.616Z,1.40
2023-05-03T13:31:59.180Z,1.10
2023-05-03T13:37:02.392Z,1.30
2023-05-03T13:42:04.885Z,1.90
2023-05-03T13:47:07.216Z,1.50
2023-05-03T13:52:10.339Z,1.20
2023-05-03T13:57:12.661Z,1.50
2023-05-03T14:02:15.607Z,1.30
2023-05-03T14:07:18.729Z,1.40
2023-05-03T14:12:21.680Z,1.60
2023-05-03T14:17:24.138Z,1.20
2023-05-03T14:22:27.600Z,1.33
2023-05-03T14:27:30.772Z,1.53
2023-05-03T14:32:33.397Z,1.70
2023-05-03T14:37:36.966Z,1.20
2023-05-03T14:42:39.428Z,1.60
2023-05-03T14:47:42.114Z,1.60
2023-05-03T14:52:44.463Z,1.60
2023-05-03T14:57:47.123Z,1.42
2023-05-03T15:02:55.857Z,1.70
2023-05-03T15:08:00.101Z,1.40
2023-05-03T15:13:02.947Z,1.27
2023-05-03T15:18:06.449Z,1.30
2023-05-03T15:23:09.092Z,1.40
2023-05-03T15:28:11.373Z,1.40
2023-05-03T15:33:13.942Z,1.20
2023-05-03T15:38:17.918Z,1.60
2023-05-03T15:43:20.241Z,1.63
2023-05-03T15:48:22.518Z,1.30
2023-05-03T15:53:26.797Z,1.30
2023-05-03T15:58:30.433Z,1.20
2023-05-03T16:03:32.814Z,1.60
2023-05-03T16:08:35.588Z,1.40
2023-05-03T16:13:38.412Z,1.53
2023-05-03T16:18:40.684Z,1.30
2023-05-03T16:23:43.046Z,1.40
2023-05-03T16:28:45.419Z,2.00
2023-05-03T16:33:47.710Z,2.40
2023-05-03T16:38:50.111Z,2.60
2023-05-03T16:43:52.437Z,1.70
2023-05-03T16:48:55.130Z,2.00
2023-05-03T16:53:57.732Z,2.30
2023-05-03T16:59:00.156Z,1.83
2023-05-03T17:04:04.582Z,1.63
2023-05-03T17:09:06.848Z,2.07
2023-05-03T17:14:09.471Z,103.47
2023-05-03T17:19:11.779Z,16.23
2023-05-03T17:24:14.035Z,16.03
2023-05-03T17:29:16.804Z,6.50
2023-05-03T17:34:20.678Z,3.77
2023-05-03T17:39:23.311Z,4.50
2023-05-03T17:44:26.251Z,4.80
2023-05-03T17:49:29.042Z,4.40
2023-05-03T17:54:32.319Z,3.50
2023-05-03T17:59:34.684Z,3.13
2023-05-03T18:04:37.008Z,3.10
2023-05-03T18:09:39.306Z,2.43
2023-05-03T18:14:42.223Z,2.27
2023-05-03T18:19:45.036Z,1.70
2023-05-03T18:24:47.454Z,13.13
2023-05-03T18:29:49.906Z,15.97
2023-05-03T18:34:52.221Z,25.27
2023-05-03T18:39:54.778Z,49.57
2023-05-03T18:44:57.100Z,24.43
2023-05-03T18:49:59.514Z,17.33
2023-05-03T18:55:01.951Z,17.73
2023-05-03T19:00:06.485Z,19.77
2023-05-03T19:05:12.062Z,28.67
2023-05-03T19:10:17.055Z,30.37
2023-05-03T19:15:19.380Z,69.47
2023-05-03T19:20:21.760Z,47.73
2023-05-03T19:25:24.084Z,25.53
2023-05-03T19:30:26.426Z,21.37
2023-05-03T19:35:28.794Z,23.23
2023-05-03T19:40:31.090Z,40.90
2023-05-03T19:45:34.212Z,32.97
2023-05-03T19:50:36.638Z,35.30
2023-05-03T19:55:38.931Z,33.20
2023-05-03T20:00:41.198Z,36.60
2023-05-03T20:05:43.569Z,42.20
2023-05-03T20:10:46.640Z,47.20
2023-05-03T20:15:50.068Z,45.63
2023-05-03T20:20:52.450Z,44.00
2023-05-03T20:25:55.405Z,45.03
2023-05-03T20:30:57.734Z,47.33
2023-05-03T20:35:59.984Z,48.27
2023-05-03T20:41:02.710Z,45.77
2023-05-03T20:46:05.241Z,45.37
2023-05-03T20:51:10.361Z,42.90
2023-05-03T20:56:12.705Z,54.20
2023-05-03T21:01:15.154Z,41.63
2023-05-03T21:06:17.717Z,47.07
2023-05-03T21:11:20.055Z,50.33
2023-05-03T21:16:23.198Z,51.17
2023-05-03T21:21:25.583Z,54.57
2023-05-03T21:26:29.145Z,49.07
2023-05-03T21:31:31.776Z,53.97
2023-05-03T21:36:34.083Z,52.47
2023-05-03T21:41:36.733Z,50.80
2023-05-03T21:46:42.872Z,47.53
2023-05-03T21:51:45.293Z,45.73
2023-05-03T21:56:48.127Z,46.67
2023-05-03T22:01:50.876Z,47.63
2023-05-03T22:06:53.832Z,48.17
2023-05-03T22:11:56.577Z,41.47
2023-05-03T22:16:59.339Z,28.67
2023-05-03T22:22:01.585Z,34.43
2023-05-03T22:27:03.878Z,30.23
2023-05-03T22:32:07.200Z,67.13
2023-05-03T22:37:09.587Z,42.27
2023-05-03T22:42:12.141Z,49.70
2023-05-03T22:47:14.470Z,37.77
2023-05-03T22:52:16.963Z,38.43
2023-05-03T22:57:19.249Z,36.97
2023-05-03T23:02:21.707Z,37.80
2023-05-03T23:07:23.980Z,43.00
2023-05-03T23:12:26.231Z,44.27
2023-05-03T23:17:28.809Z,38.83
2023-05-03T23:22:31.316Z,78.93
2023-05-03T23:27:33.646Z,47.13
2023-05-03T23:32:36.484Z,32.20
2023-05-03T23:37:39.328Z,26.80
2023-05-03T23:42:41.687Z,25.83
2023-05-03T23:47:43.967Z,27.93
2023-05-03T23:52:46.649Z,27.73
2023-05-03T23:57:48.918Z,27.77
